Flight Track Log - Related Links

Times and Time Zones

All times are in EST time to prevent confusion due to time zone crossing. See the VH-ENT flight status page for this flight to view local times or setup timezone preferences in your user account.


Time Position Orientation Groundspeed Altitude Reporting Facility
EST Latitude Longitude Course Direction KTS MPH feet Rate Location/Type
Wed 07:55:23 PM -18.6375 121.8346 360° North 100  Level Aus ATC (Calculated)
Wed 07:55:33 PM -18.6375 121.8346 360° North 100  Level Aus ATC (Calculated)
Wed 07:56:19 PM -18.6375 121.8346 29° Northeast 100  Level Aus ATC (Calculated)
Wed 07:58:00 PM -18.5898 121.8621 29° Northeast  Level Estimated
Wed 07:59:00 PM -18.5615 121.8784 29° Northeast  Level Estimated
Wed 07:59:19 PM -18.4648 121.9351 28° Northeast 400  Level Aus ATC (Calculated)
Wed 08:01:00 PM -18.4171 121.9624 28° Northeast  Level Estimated
Wed 08:01:10 PM -18.4004 121.9718 360° North 100  Level Aus ATC (Calculated)
Wed 08:01:10 PM -18.4004 121.9718 28° Northeast 100  Level Aus ATC (Calculated)
Wed 08:03:00 PM -18.3484 122.0015 28° Northeast  Level Estimated
Wed 08:04:00 PM -18.3201 122.0177 28° Northeast  Level Estimated
Wed 08:05:00 PM -18.2917 122.0339 28° Northeast  Level Estimated
Wed 08:06:00 PM -18.2634 122.0501 28° Northeast  Level Estimated
Wed 08:07:00 PM -18.2351 122.0663 28° Northeast  Level Estimated
Wed 08:08:00 PM -18.2067 122.0825 28° Northeast  Level Estimated
Wed 08:09:00 PM -18.1783 122.0986 28° Northeast  Level Estimated
Wed 08:10:00 PM -18.1500 122.1148 28° Northeast  Level Estimated
Wed 08:11:00 PM -18.1216 122.1310 28° Northeast  Level Estimated
Wed 08:12:00 PM -18.0933 122.1471 28° Northeast  Level Estimated
Wed 08:13:00 PM -18.0649 122.1633 28° Northeast  Level Estimated

Login

Don't have an account? Register now (free) for customized features, flight alerts, and more!